createdAt,value
2022-09-04T00:00:35.355Z,20.50
2022-09-04T00:01:49.158Z,20.60
2022-09-04T00:03:33.618Z,20.50
2022-09-04T00:04:43.261Z,20.50
2022-09-04T00:05:49.658Z,20.50
2022-09-04T00:07:16.447Z,20.50
2022-09-04T00:08:34.893Z,20.50
2022-09-04T00:10:01.400Z,20.50
2022-09-04T00:11:22.042Z,20.40
2022-09-04T00:12:33.290Z,20.40
2022-09-04T00:13:43.733Z,20.40
2022-09-04T00:14:54.454Z,20.40
2022-09-04T00:16:12.339Z,20.30
2022-09-04T00:17:29.355Z,20.30
2022-09-04T00:18:41.417Z,20.30
2022-09-04T00:19:56.418Z,20.30
2022-09-04T00:21:21.614Z,20.30
2022-09-04T00:22:50.621Z,20.30
2022-09-04T00:23:59.409Z,20.30
2022-09-04T00:25:09.591Z,20.30
2022-09-04T00:26:37.411Z,20.30
2022-09-04T00:27:45.438Z,20.30
2022-09-04T00:28:50.652Z,20.30
2022-09-04T00:30:07.519Z,20.30
2022-09-04T00:31:09.221Z,20.30
2022-09-04T00:32:30.079Z,20.30
2022-09-04T00:33:59.667Z,20.30
2022-09-04T00:35:13.505Z,20.30
2022-09-04T00:36:17.293Z,20.30
2022-09-04T00:37:25.740Z,20.30
2022-09-04T00:39:02.657Z,20.20
2022-09-04T00:40:31.277Z,20.20
2022-09-04T00:41:44.928Z,20.10
2022-09-04T00:43:12.853Z,20.10
2022-09-04T00:44:42.125Z,20.00
2022-09-04T00:46:13.904Z,20.00
2022-09-04T00:47:33.785Z,19.90
2022-09-04T00:48:47.681Z,19.90
2022-09-04T00:50:18.953Z,19.90
2022-09-04T00:51:30.959Z,19.80
2022-09-04T00:53:08.482Z,19.80
2022-09-04T00:54:42.165Z,19.80
2022-09-04T00:56:09.695Z,19.80
2022-09-04T00:57:37.289Z,19.80
2022-09-04T00:58:48.216Z,19.80
2022-09-04T01:00:19.708Z,19.80
2022-09-04T01:01:25.131Z,19.80
2022-09-04T01:02:40.276Z,19.90
2022-09-04T01:04:00.033Z,19.80
2022-09-04T01:05:27.087Z,19.90
2022-09-04T01:06:41.865Z,19.90
2022-09-04T01:07:53.754Z,19.90
2022-09-04T01:09:39.327Z,19.90
2022-09-04T01:11:02.999Z,19.90
2022-09-04T01:12:26.650Z,19.90
2022-09-04T01:13:50.499Z,19.80
2022-09-04T01:15:14.562Z,19.80
2022-09-04T01:16:33.966Z,19.80
2022-09-04T01:17:59.536Z,19.80
2022-09-04T01:19:25.396Z,19.70
2022-09-04T01:20:51.149Z,19.70
2022-09-04T01:22:30.474Z,19.70
2022-09-04T01:24:01.290Z,19.70
2022-09-04T01:25:11.505Z,19.70
2022-09-04T01:26:41.762Z,19.70
2022-09-04T01:28:12.381Z,19.70
2022-09-04T01:29:33.079Z,19.70
2022-09-04T01:30:54.179Z,19.60
2022-09-04T01:32:16.742Z,19.60
2022-09-04T01:33:34.566Z,19.60
2022-09-04T01:34:59.686Z,19.50
2022-09-04T01:36:09.301Z,19.50
2022-09-04T01:37:42.172Z,19.50
2022-09-04T01:38:53.739Z,19.50
2022-09-04T01:40:03.681Z,19.50
2022-09-04T01:41:27.317Z,19.50
2022-09-04T01:42:46.080Z,19.50
2022-09-04T01:43:48.463Z,19.50
2022-09-04T01:44:50.680Z,19.60
2022-09-04T01:46:23.185Z,19.60
2022-09-04T01:47:42.857Z,19.60
2022-09-04T01:49:07.013Z,19.60
2022-09-04T01:50:19.235Z,19.60
2022-09-04T01:51:27.566Z,19.60
2022-09-04T01:52:47.067Z,19.60
2022-09-04T01:54:03.923Z,19.60
2022-09-04T01:55:13.553Z,19.60
2022-09-04T01:56:24.738Z,19.60
2022-09-04T01:57:55.019Z,19.60
2022-09-04T01:59:11.859Z,19.70
2022-09-04T02:00:22.070Z,19.60
2022-09-04T02:01:29.415Z,19.60
2022-09-04T02:02:42.928Z,19.70
2022-09-04T02:04:03.096Z,19.70
2022-09-04T02:05:10.431Z,19.70
2022-09-04T02:06:27.805Z,19.70
2022-09-04T02:07:38.697Z,19.70
2022-09-04T02:09:15.540Z,19.70
2022-09-04T02:10:44.488Z,19.70
2022-09-04T02:11:57.027Z,19.70
2022-09-04T02:13:22.505Z,19.70
2022-09-04T02:14:51.519Z,19.70
2022-09-04T02:16:14.345Z,19.70
2022-09-04T02:17:44.497Z,19.70
2022-09-04T02:18:49.160Z,19.60
2022-09-04T02:20:26.274Z,19.60
2022-09-04T02:21:33.284Z,19.70
2022-09-04T02:22:56.738Z,19.60
2022-09-04T02:24:16.648Z,19.70
2022-09-04T02:25:22.929Z,19.60
2022-09-04T02:26:30.805Z,19.60
2022-09-04T02:27:45.276Z,19.60
2022-09-04T02:29:18.919Z,19.50
2022-09-04T02:30:21.186Z,19.60
2022-09-04T02:31:51.028Z,19.60
2022-09-04T02:33:22.536Z,19.50
2022-09-04T02:34:34.460Z,19.50
2022-09-04T02:35:49.833Z,19.50
2022-09-04T02:36:59.062Z,19.40
2022-09-04T02:38:29.284Z,19.40
2022-09-04T02:39:40.389Z,19.40
2022-09-04T02:41:06.026Z,19.40
2022-09-04T02:42:23.902Z,19.40
2022-09-04T02:43:28.562Z,19.50
2022-09-04T02:44:49.737Z,19.40
2022-09-04T02:46:21.625Z,19.40
2022-09-04T02:47:27.109Z,19.40
2022-09-04T02:48:44.103Z,19.40
2022-09-04T02:50:15.559Z,19.40
2022-09-04T02:51:42.610Z,19.40
2022-09-04T02:52:56.099Z,19.40
2022-09-04T02:54:31.504Z,19.40
2022-09-04T02:55:57.768Z,19.40
2022-09-04T02:57:39.458Z,19.40
2022-09-04T02:59:11.365Z,19.30
2022-09-04T03:00:28.499Z,19.30
2022-09-04T03:02:10.974Z,19.30
2022-09-04T03:03:18.670Z,19.20
2022-09-04T03:04:49.843Z,19.20
2022-09-04T03:06:01.714Z,19.20
2022-09-04T03:07:20.781Z,19.10
2022-09-04T03:08:29.715Z,19.10
2022-09-04T03:09:48.500Z,19.00
2022-09-04T03:11:19.003Z,19.00
2022-09-04T03:12:40.114Z,19.00
2022-09-04T03:13:59.064Z,19.00
2022-09-04T03:15:14.717Z,19.00
2022-09-04T03:16:26.963Z,19.00
2022-09-04T03:17:37.482Z,19.00
2022-09-04T03:19:11.761Z,18.90
2022-09-04T03:20:23.595Z,19.00
2022-09-04T03:21:45.542Z,19.00
2022-09-04T03:23:00.515Z,19.00
2022-09-04T03:24:16.244Z,19.00
2022-09-04T03:25:53.502Z,19.00
2022-09-04T03:26:59.696Z,19.00
2022-09-04T03:28:02.399Z,19.00
2022-09-04T03:29:51.442Z,19.00
2022-09-04T03:30:57.215Z,18.90
2022-09-04T03:32:16.592Z,18.90
2022-09-04T03:33:31.900Z,18.90
2022-09-04T03:34:48.771Z,18.90
2022-09-04T03:36:19.047Z,18.90
2022-09-04T03:37:37.701Z,18.80
2022-09-04T03:39:28.554Z,18.80
2022-09-04T03:40:33.574Z,18.80
2022-09-04T03:41:40.531Z,18.80
2022-09-04T03:43:06.726Z,18.80
2022-09-04T03:44:36.072Z,18.80
2022-09-04T03:46:19.327Z,18.80
2022-09-04T03:47:42.555Z,18.80
2022-09-04T03:49:02.266Z,18.70
2022-09-04T03:50:23.532Z,18.70
2022-09-04T03:51:38.237Z,18.70
2022-09-04T03:52:59.819Z,18.70
2022-09-04T03:54:48.668Z,18.70
2022-09-04T03:56:12.725Z,18.70
2022-09-04T03:57:14.412Z,18.80
2022-09-04T03:58:43.531Z,18.80
2022-09-04T04:00:10.256Z,18.80
2022-09-04T04:01:26.751Z,18.80
2022-09-04T04:02:34.838Z,18.80
2022-09-04T04:03:42.414Z,18.80
2022-09-04T04:05:09.272Z,18.80
2022-09-04T04:06:20.129Z,18.80
2022-09-04T04:07:30.997Z,18.80
2022-09-04T04:08:57.725Z,18.80
2022-09-04T04:10:03.096Z,18.80
2022-09-04T04:11:18.412Z,18.80
2022-09-04T04:12:56.792Z,18.80
2022-09-04T04:14:10.704Z,18.80
2022-09-04T04:15:39.997Z,18.80
2022-09-04T04:17:06.803Z,18.80
2022-09-04T04:18:14.444Z,18.70
2022-09-04T04:19:34.994Z,18.70
2022-09-04T04:21:01.258Z,18.70
2022-09-04T04:22:20.126Z,18.60
2022-09-04T04:23:56.830Z,18.60
2022-09-04T04:25:25.728Z,18.60
2022-09-04T04:26:54.715Z,18.50
2022-09-04T04:28:29.182Z,18.50
2022-09-04T04:29:53.424Z,18.50
2022-09-04T04:31:07.599Z,18.40
2022-09-04T04:32:43.911Z,18.40
2022-09-04T04:34:13.657Z,18.40
2022-09-04T04:35:27.796Z,18.40
2022-09-04T04:37:00.483Z,18.40
2022-09-04T04:38:18.571Z,18.40
2022-09-04T04:39:52.941Z,18.40
2022-09-04T04:41:05.636Z,18.30
2022-09-04T04:42:22.844Z,18.30
2022-09-04T04:43:30.683Z,18.30
2022-09-04T04:45:18.280Z,18.30
2022-09-04T04:47:09.336Z,18.30
2022-09-04T04:48:41.844Z,18.20
2022-09-04T04:50:16.197Z,18.20
2022-09-04T04:51:32.604Z,18.20
2022-09-04T04:52:50.219Z,18.10
2022-09-04T04:54:13.301Z,18.10
2022-09-04T04:55:50.331Z,18.10
2022-09-04T04:57:20.800Z,18.10
2022-09-04T04:58:22.559Z,18.10
2022-09-04T04:59:48.122Z,18.10
2022-09-04T05:01:25.705Z,18.10
2022-09-04T05:02:34.505Z,18.20
2022-09-04T05:04:02.863Z,18.20
2022-09-04T05:05:16.120Z,18.20
2022-09-04T05:07:00.397Z,18.20
2022-09-04T05:08:14.926Z,18.20
2022-09-04T05:09:34.789Z,18.20
2022-09-04T05:10:58.466Z,18.10
2022-09-04T05:12:15.515Z,18.10
2022-09-04T05:13:24.577Z,18.10
2022-09-04T05:14:36.856Z,18.10
2022-09-04T05:16:05.066Z,18.10
2022-09-04T05:17:33.469Z,18.10
2022-09-04T05:18:45.480Z,18.00
2022-09-04T05:20:14.392Z,18.00
2022-09-04T05:21:40.382Z,18.00
2022-09-04T05:22:49.770Z,18.00
2022-09-04T05:24:13.329Z,18.00
2022-09-04T05:25:32.596Z,18.10
2022-09-04T05:26:43.667Z,18.10
2022-09-04T05:28:03.728Z,18.10
2022-09-04T05:29:11.254Z,18.00
2022-09-04T05:30:37.470Z,18.10
2022-09-04T05:32:01.341Z,18.00
2022-09-04T05:33:29.781Z,18.10
2022-09-04T05:35:02.350Z,18.10
2022-09-04T05:36:41.884Z,18.10
2022-09-04T05:37:56.393Z,18.10
2022-09-04T05:39:19.868Z,18.10
2022-09-04T05:40:51.955Z,18.10
2022-09-04T05:41:53.644Z,18.10
2022-09-04T05:43:02.672Z,18.10
2022-09-04T05:44:47.942Z,18.10
2022-09-04T05:46:04.992Z,18.10
2022-09-04T05:47:49.376Z,18.00
2022-09-04T05:49:09.078Z,18.00
2022-09-04T05:50:47.722Z,18.10
2022-09-04T05:51:56.048Z,18.00
2022-09-04T05:53:03.084Z,18.00
2022-09-04T05:54:24.937Z,18.00
2022-09-04T05:55:48.085Z,18.00
2022-09-04T05:57:00.007Z,18.00
2022-09-04T05:58:31.432Z,18.00
2022-09-04T05:59:58.364Z,18.00
2022-09-04T06:01:13.612Z,18.00
2022-09-04T06:02:27.388Z,18.00
2022-09-04T06:03:56.901Z,18.00
2022-09-04T06:05:10.180Z,18.00
2022-09-04T06:06:17.015Z,18.10
2022-09-04T06:07:40.521Z,18.10
2022-09-04T06:09:03.051Z,18.10
2022-09-04T06:10:39.859Z,18.10
2022-09-04T06:11:44.433Z,18.10
2022-09-04T06:13:21.595Z,18.20
2022-09-04T06:14:48.054Z,18.20
2022-09-04T06:16:09.731Z,18.20
2022-09-04T06:17:21.108Z,18.20
2022-09-04T06:18:43.845Z,18.30
2022-09-04T06:20:13.123Z,18.30
2022-09-04T06:21:26.763Z,18.40
2022-09-04T06:22:55.579Z,18.40
2022-09-04T06:23:58.462Z,18.40
2022-09-04T06:25:09.308Z,18.40
2022-09-04T06:26:32.065Z,18.40
2022-09-04T06:28:15.141Z,18.50
2022-09-04T06:29:25.761Z,18.50
2022-09-04T06:30:42.273Z,18.50
2022-09-04T06:32:09.755Z,18.50
2022-09-04T06:33:32.776Z,18.60
2022-09-04T06:34:37.599Z,18.50
2022-09-04T06:35:47.197Z,18.50
2022-09-04T06:37:16.393Z,18.60
2022-09-04T06:38:38.366Z,18.70
2022-09-04T06:40:13.318Z,18.70
2022-09-04T06:41:24.253Z,18.80
2022-09-04T06:42:31.952Z,18.80
2022-09-04T06:44:11.462Z,18.80
2022-09-04T06:45:13.163Z,18.80
2022-09-04T06:46:29.239Z,18.80
2022-09-04T06:47:49.708Z,18.80
2022-09-04T06:49:04.957Z,18.80
2022-09-04T06:50:24.611Z,18.90
2022-09-04T06:51:47.429Z,18.90
2022-09-04T06:53:04.304Z,18.90
2022-09-04T06:54:27.536Z,18.90
2022-09-04T06:55:48.613Z,18.90
2022-09-04T06:57:11.326Z,19.00
2022-09-04T06:58:25.144Z,19.00
2022-09-04T07:00:06.120Z,19.00
2022-09-04T07:01:15.627Z,19.10
2022-09-04T07:02:33.273Z,19.10
2022-09-04T07:03:55.925Z,19.20
2022-09-04T07:05:27.698Z,19.20
2022-09-04T07:06:57.096Z,19.30
2022-09-04T07:08:13.706Z,19.30
2022-09-04T07:09:15.471Z,19.30
2022-09-04T07:10:25.905Z,19.30
2022-09-04T07:11:39.721Z,19.40
2022-09-04T07:12:47.411Z,19.40
2022-09-04T07:14:17.251Z,19.40
2022-09-04T07:15:31.064Z,19.50
2022-09-04T07:16:43.168Z,19.50
2022-09-04T07:18:06.499Z,19.50
2022-09-04T07:19:27.538Z,19.50
2022-09-04T07:21:00.171Z,19.60
2022-09-04T07:22:20.597Z,19.70
2022-09-04T07:23:27.596Z,19.70
2022-09-04T07:24:59.408Z,19.70
2022-09-04T07:26:28.522Z,19.70
2022-09-04T07:27:52.774Z,19.70
2022-09-04T07:29:22.600Z,19.70
2022-09-04T07:30:32.044Z,19.70
2022-09-04T07:32:00.196Z,19.70
2022-09-04T07:33:12.875Z,19.70
2022-09-04T07:34:24.852Z,19.70
2022-09-04T07:35:39.231Z,19.80
2022-09-04T07:37:08.940Z,19.80
2022-09-04T07:38:22.667Z,19.80
2022-09-04T07:39:31.066Z,19.90
2022-09-04T07:40:50.916Z,19.90
2022-09-04T07:42:13.025Z,19.90
2022-09-04T07:43:30.599Z,20.00
2022-09-04T07:44:57.463Z,20.00
2022-09-04T07:46:05.511Z,20.00
2022-09-04T07:47:55.165Z,20.00
2022-09-04T07:49:09.970Z,20.00
2022-09-04T07:50:23.860Z,20.10
2022-09-04T07:51:36.351Z,20.10
2022-09-04T07:52:41.702Z,20.10
2022-09-04T07:54:22.997Z,20.10
2022-09-04T07:55:47.287Z,20.20
2022-09-04T07:57:14.915Z,20.20
2022-09-04T07:58:44.857Z,20.30
2022-09-04T08:00:05.615Z,20.30
2022-09-04T08:01:42.582Z,20.30
2022-09-04T08:03:12.018Z,20.30
2022-09-04T08:04:33.173Z,20.30
2022-09-04T08:06:02.632Z,20.30
2022-09-04T08:07:11.673Z,20.30
2022-09-04T08:08:41.052Z,20.40
2022-09-04T08:10:04.692Z,20.40
2022-09-04T08:11:45.547Z,20.40
2022-09-04T08:12:54.103Z,20.40
2022-09-04T08:14:25.650Z,20.40
2022-09-04T08:16:00.045Z,20.50
2022-09-04T08:17:29.586Z,20.50
2022-09-04T08:18:38.758Z,20.50
2022-09-04T08:19:40.717Z,20.60
2022-09-04T08:20:45.043Z,20.70
2022-09-04T08:21:48.803Z,20.70
2022-09-04T08:22:53.535Z,20.80
2022-09-04T08:24:13.797Z,20.80
2022-09-04T08:25:40.115Z,20.90
2022-09-04T08:26:53.696Z,21.00
2022-09-04T08:28:01.001Z,21.10
2022-09-04T08:29:22.397Z,21.10
2022-09-04T08:30:24.082Z,21.20
2022-09-04T08:31:32.775Z,21.20
2022-09-04T08:32:53.284Z,21.30
2022-09-04T08:33:59.979Z,21.40
2022-09-04T08:35:20.503Z,21.40
2022-09-04T08:36:55.594Z,21.40
2022-09-04T08:38:15.875Z,21.50
2022-09-04T08:39:44.171Z,21.60
2022-09-04T08:40:59.219Z,21.70
2022-09-04T08:42:28.989Z,21.70
2022-09-04T08:43:44.546Z,21.80
2022-09-04T08:45:23.895Z,21.80
2022-09-04T08:46:44.567Z,21.80
2022-09-04T08:48:11.231Z,21.90
2022-09-04T08:49:38.207Z,21.90
2022-09-04T08:50:51.722Z,21.90
2022-09-04T08:52:21.755Z,21.90
2022-09-04T08:54:00.188Z,22.00
2022-09-04T08:55:05.806Z,22.00
2022-09-04T08:56:35.582Z,22.10
2022-09-04T08:57:55.800Z,22.10
2022-09-04T08:59:06.239Z,22.10
2022-09-04T09:00:15.208Z,22.10
2022-09-04T09:01:27.493Z,22.10
2022-09-04T09:03:06.680Z,22.20
2022-09-04T09:04:17.878Z,22.20
2022-09-04T09:05:39.803Z,22.30
2022-09-04T09:07:03.587Z,22.20
2022-09-04T09:08:13.610Z,22.30
2022-09-04T09:09:47.058Z,22.30
2022-09-04T09:11:07.214Z,22.30
2022-09-04T09:12:15.201Z,22.30
2022-09-04T09:14:01.719Z,22.30
2022-09-04T09:15:44.175Z,22.40
2022-09-04T09:17:28.058Z,22.40
2022-09-04T09:18:41.583Z,22.40
2022-09-04T09:20:06.385Z,22.40
2022-09-04T09:21:28.887Z,22.50
2022-09-04T09:22:41.140Z,22.50
2022-09-04T09:23:52.094Z,22.60
2022-09-04T09:24:54.322Z,22.70
2022-09-04T09:26:26.708Z,22.70
2022-09-04T09:27:34.712Z,22.80
2022-09-04T09:28:39.877Z,22.90
2022-09-04T09:29:47.334Z,22.90
2022-09-04T09:31:35.454Z,22.90
2022-09-04T09:33:18.720Z,23.00
2022-09-04T09:34:54.755Z,23.10
2022-09-04T09:35:59.376Z,23.30
2022-09-04T09:38:06.631Z,23.30
2022-09-04T09:39:41.184Z,23.40
2022-09-04T09:40:56.080Z,23.40
2022-09-04T09:42:20.789Z,23.50
2022-09-04T09:43:29.986Z,23.50
2022-09-04T09:45:00.250Z,23.60
2022-09-04T09:46:23.296Z,23.60
2022-09-04T09:47:47.290Z,23.60
2022-09-04T09:49:19.784Z,23.60
2022-09-04T09:50:46.295Z,23.60
2022-09-04T09:52:29.166Z,23.60
2022-09-04T09:54:07.522Z,23.60
2022-09-04T09:55:45.388Z,23.60
2022-09-04T09:57:17.359Z,23.60
2022-09-04T09:58:32.705Z,23.70
2022-09-04T09:59:55.980Z,23.70
2022-09-04T10:01:14.412Z,23.70
2022-09-04T10:02:49.915Z,23.70
2022-09-04T10:04:13.130Z,23.70
2022-09-04T10:05:56.436Z,23.80
2022-09-04T10:07:41.485Z,23.80
2022-09-04T10:11:03.674Z,23.90
2022-09-04T10:12:33.929Z,23.90
2022-09-04T10:14:04.713Z,23.90
2022-09-04T10:15:35.575Z,23.90
2022-09-04T10:17:00.557Z,24.00
2022-09-04T10:18:17.771Z,24.10
2022-09-04T10:19:39.295Z,24.20
2022-09-04T10:21:00.148Z,24.20
2022-09-04T10:22:46.828Z,24.30
2022-09-04T10:24:08.206Z,24.40
2022-09-04T10:25:31.706Z,24.50
2022-09-04T10:27:14.998Z,24.50
2022-09-04T10:28:45.085Z,24.60
2022-09-04T10:30:22.678Z,24.70
2022-09-04T10:31:35.591Z,24.70
2022-09-04T10:32:55.436Z,24.70
2022-09-04T10:34:24.240Z,24.70
2022-09-04T10:35:52.684Z,24.70
2022-09-04T10:37:33.066Z,24.70
2022-09-04T10:38:59.090Z,24.70
2022-09-04T10:40:43.277Z,24.70
2022-09-04T10:42:03.593Z,24.70
2022-09-04T10:43:30.581Z,24.70
2022-09-04T10:44:56.428Z,24.70
2022-09-04T10:46:01.194Z,24.60
2022-09-04T10:47:52.518Z,24.60
2022-09-04T10:49:12.725Z,24.50
2022-09-04T10:50:59.747Z,24.50
2022-09-04T10:52:05.454Z,24.50
2022-09-04T10:53:20.639Z,24.40
2022-09-04T10:54:54.401Z,24.50
2022-09-04T10:56:05.959Z,24.50
2022-09-04T10:57:50.439Z,24.50
2022-09-04T10:59:04.994Z,24.50
2022-09-04T11:00:16.043Z,24.50
2022-09-04T11:01:32.276Z,24.50
2022-09-04T11:03:11.514Z,24.50
2022-09-04T11:04:29.559Z,24.60
2022-09-04T11:06:19.033Z,24.60
2022-09-04T11:07:41.747Z,24.70
2022-09-04T11:09:14.109Z,24.80
2022-09-04T11:10:37.687Z,24.80
2022-09-04T11:11:52.837Z,24.90
2022-09-04T11:13:11.971Z,24.90
2022-09-04T11:14:36.839Z,25.00
2022-09-04T11:16:16.356Z,25.00
2022-09-04T11:18:02.146Z,25.10
2022-09-04T11:19:36.296Z,25.10
2022-09-04T11:20:58.281Z,25.30
2022-09-04T11:22:38.649Z,25.30
2022-09-04T11:24:01.969Z,25.30
2022-09-04T11:25:23.908Z,25.40
2022-09-04T11:27:05.940Z,25.40
2022-09-04T11:28:15.865Z,25.50
2022-09-04T11:29:59.415Z,25.60
2022-09-04T11:31:08.568Z,25.60
2022-09-04T11:32:34.126Z,25.70
2022-09-04T11:34:14.316Z,25.70
2022-09-04T11:35:29.737Z,25.80
2022-09-04T11:36:58.208Z,25.80
2022-09-04T11:38:17.494Z,25.90
2022-09-04T11:39:27.884Z,25.90
2022-09-04T11:40:47.798Z,25.90
2022-09-04T11:42:21.917Z,25.90
2022-09-04T11:43:23.975Z,25.80
2022-09-04T11:44:36.002Z,25.80
2022-09-04T11:45:48.167Z,25.80
2022-09-04T11:47:07.386Z,25.80
2022-09-04T11:48:41.113Z,25.80
2022-09-04T11:49:42.742Z,25.90
2022-09-04T11:51:16.427Z,25.90
2022-09-04T11:52:48.867Z,25.90
2022-09-04T11:54:39.728Z,25.90
2022-09-04T11:56:08.958Z,25.90
2022-09-04T11:57:22.591Z,25.90
2022-09-04T11:58:53.656Z,25.80
2022-09-04T12:00:06.065Z,25.80
2022-09-04T12:01:26.914Z,25.80
2022-09-04T12:02:57.289Z,25.80
2022-09-04T12:04:14.835Z,25.80
2022-09-04T12:05:40.081Z,25.90
2022-09-04T12:06:44.197Z,25.80
2022-09-04T12:08:15.757Z,25.90
2022-09-04T12:09:32.715Z,26.00
2022-09-04T12:10:56.439Z,26.00
2022-09-04T12:12:12.229Z,26.10
2022-09-04T12:14:02.347Z,26.20
2022-09-04T12:15:20.447Z,26.30
2022-09-04T12:16:44.672Z,26.30
2022-09-04T12:17:56.575Z,26.40
2022-09-04T12:19:05.037Z,26.50
2022-09-04T12:20:34.873Z,26.60
2022-09-04T12:21:51.367Z,26.70
2022-09-04T12:23:19.126Z,26.70
2022-09-04T12:24:39.117Z,26.70
2022-09-04T12:26:13.336Z,26.70
2022-09-04T12:27:50.346Z,26.70
2022-09-04T12:29:13.138Z,26.70
2022-09-04T12:30:19.061Z,26.70
2022-09-04T12:31:29.368Z,26.60
2022-09-04T12:32:36.666Z,26.70
2022-09-04T12:33:46.720Z,26.70
2022-09-04T12:35:27.491Z,26.80
2022-09-04T12:37:06.160Z,26.70
2022-09-04T12:38:39.610Z,26.70
2022-09-04T12:40:09.827Z,26.80
2022-09-04T12:41:11.725Z,26.90
2022-09-04T12:42:36.637Z,27.00
2022-09-04T12:44:06.304Z,27.00
2022-09-04T12:45:23.486Z,27.20
2022-09-04T12:46:38.552Z,27.20
2022-09-04T12:48:03.197Z,27.30
2022-09-04T12:49:46.111Z,27.30
2022-09-04T12:50:55.985Z,27.40
2022-09-04T12:52:17.393Z,27.40
2022-09-04T12:53:49.242Z,27.50
2022-09-04T12:55:10.030Z,27.60
2022-09-04T12:56:42.085Z,27.70
2022-09-04T12:58:12.065Z,27.70
2022-09-04T12:59:26.724Z,27.80
2022-09-04T13:00:42.079Z,27.80
2022-09-04T13:02:15.044Z,27.90
2022-09-04T13:03:19.507Z,27.90
2022-09-04T13:05:06.563Z,28.00
2022-09-04T13:06:22.521Z,28.00
2022-09-04T13:07:36.290Z,28.00
2022-09-04T13:09:00.173Z,28.00
2022-09-04T13:10:16.375Z,28.10
2022-09-04T13:11:30.259Z,28.10
2022-09-04T13:13:01.315Z,28.20
2022-09-04T13:14:08.745Z,28.20
2022-09-04T13:15:35.230Z,28.10
2022-09-04T13:16:54.432Z,28.10
2022-09-04T13:18:22.908Z,28.20
2022-09-04T13:19:47.005Z,28.30
2022-09-04T13:21:08.954Z,28.30
2022-09-04T13:22:35.365Z,28.30
2022-09-04T13:23:53.199Z,28.30
2022-09-04T13:25:15.295Z,28.30
2022-09-04T13:26:42.568Z,28.40
2022-09-04T13:28:12.099Z,28.50
2022-09-04T13:29:27.902Z,28.50
2022-09-04T13:30:31.210Z,28.60
2022-09-04T13:31:50.097Z,28.60
2022-09-04T13:33:19.652Z,28.70
2022-09-04T13:34:29.310Z,28.80
2022-09-04T13:36:11.348Z,28.80
2022-09-04T13:37:29.226Z,28.90
2022-09-04T13:39:01.561Z,29.00
2022-09-04T13:40:37.180Z,29.10
2022-09-04T13:41:38.831Z,29.20
2022-09-04T13:42:59.081Z,29.30
2022-09-04T13:44:38.211Z,29.40
2022-09-04T13:45:45.599Z,29.50
2022-09-04T13:47:08.990Z,29.60
2022-09-04T13:48:13.399Z,29.60
2022-09-04T13:49:27.661Z,29.60
2022-09-04T13:50:55.828Z,29.60
2022-09-04T13:52:10.176Z,29.60
2022-09-04T13:53:37.291Z,29.50
2022-09-04T13:55:11.324Z,29.30
2022-09-04T13:56:23.136Z,29.30
2022-09-04T13:57:30.018Z,29.30
2022-09-04T13:58:39.554Z,29.40
2022-09-04T13:59:44.427Z,29.40
2022-09-04T14:00:57.337Z,29.60
2022-09-04T14:02:04.887Z,29.60
2022-09-04T14:03:14.483Z,29.70
2022-09-04T14:04:23.660Z,29.70
2022-09-04T14:05:28.149Z,30.00
2022-09-04T14:06:31.305Z,30.00
2022-09-04T14:07:44.124Z,30.20
2022-09-04T14:09:04.270Z,30.20
2022-09-04T14:10:20.166Z,30.30
2022-09-04T14:11:57.947Z,30.30
2022-09-04T14:13:23.232Z,30.30
2022-09-04T14:14:30.883Z,30.30
2022-09-04T14:15:44.660Z,30.10
2022-09-04T14:16:46.958Z,30.00
2022-09-04T14:18:16.285Z,30.20
2022-09-04T14:19:43.398Z,30.70
2022-09-04T14:21:01.321Z,31.30
2022-09-04T14:22:17.786Z,32.00
2022-09-04T14:23:24.772Z,32.60
2022-09-04T14:24:38.592Z,33.00
2022-09-04T14:25:53.438Z,33.20
2022-09-04T14:26:55.575Z,33.20
2022-09-04T14:28:18.789Z,33.00
2022-09-04T14:29:38.819Z,32.80
2022-09-04T14:31:19.407Z,32.50
2022-09-04T14:32:42.520Z,32.20
2022-09-04T14:34:05.547Z,31.90
2022-09-04T14:35:30.173Z,31.70
2022-09-04T14:36:57.336Z,31.50
2022-09-04T14:38:29.235Z,31.40
2022-09-04T14:39:42.241Z,31.40
2022-09-04T14:40:54.939Z,31.30
2022-09-04T14:42:16.265Z,31.20
2022-09-04T14:43:33.122Z,31.30
2022-09-04T14:45:12.497Z,31.30
2022-09-04T14:46:20.216Z,31.40
2022-09-04T14:47:31.143Z,31.40
2022-09-04T14:48:40.660Z,31.20
2022-09-04T14:49:48.880Z,31.10
2022-09-04T14:50:57.660Z,31.10
2022-09-04T14:52:10.347Z,31.10
2022-09-04T14:53:26.607Z,31.10
2022-09-04T14:54:36.146Z,31.10
2022-09-04T14:56:02.027Z,31.10
2022-09-04T14:57:27.668Z,31.10
2022-09-04T14:58:34.769Z,31.00
2022-09-04T14:59:44.233Z,31.00
2022-09-04T15:00:59.101Z,31.00
2022-09-04T15:02:12.747Z,31.00
2022-09-04T15:03:25.663Z,30.90
2022-09-04T15:04:44.495Z,30.80
2022-09-04T15:05:55.841Z,30.70
2022-09-04T15:07:11.696Z,30.70
2022-09-04T15:08:38.100Z,30.60
2022-09-04T15:09:45.938Z,30.60
2022-09-04T15:10:50.374Z,30.50
2022-09-04T15:12:20.878Z,30.40
2022-09-04T15:13:39.634Z,30.40
2022-09-04T15:14:46.092Z,30.30
2022-09-04T15:16:18.251Z,30.30
2022-09-04T15:17:28.209Z,30.10
2022-09-04T15:18:41.981Z,30.00
2022-09-04T15:19:52.745Z,30.00
2022-09-04T15:21:02.957Z,29.90
2022-09-04T15:22:12.105Z,29.80
2022-09-04T15:23:24.835Z,29.80
2022-09-04T15:24:28.392Z,29.70
2022-09-04T15:25:58.694Z,29.70
2022-09-04T15:27:17.393Z,29.70
2022-09-04T15:28:30.857Z,29.60
2022-09-04T15:30:02.140Z,29.60
2022-09-04T15:31:22.332Z,29.50
2022-09-04T15:32:27.727Z,29.40
2022-09-04T15:33:30.239Z,29.40
2022-09-04T15:34:32.724Z,29.30
2022-09-04T15:35:35.173Z,29.20
2022-09-04T15:36:39.100Z,29.20
2022-09-04T15:37:48.355Z,29.10
2022-09-04T15:39:05.491Z,29.10
2022-09-04T15:40:13.001Z,29.00
2022-09-04T15:41:33.988Z,29.00
2022-09-04T15:42:53.179Z,28.90
2022-09-04T15:44:35.445Z,28.90
2022-09-04T15:45:56.086Z,28.90
2022-09-04T15:47:17.131Z,28.90
2022-09-04T15:48:18.792Z,28.80
2022-09-04T15:49:42.300Z,28.80
2022-09-04T15:51:05.444Z,28.90
2022-09-04T15:52:42.259Z,28.80
2022-09-04T15:54:11.769Z,28.80
2022-09-04T15:55:19.397Z,28.90
2022-09-04T15:56:23.972Z,28.90
2022-09-04T15:57:39.313Z,29.00
2022-09-04T15:58:55.489Z,29.10
2022-09-04T16:00:22.661Z,29.30
2022-09-04T16:01:37.333Z,29.50
2022-09-04T16:02:46.424Z,29.70
2022-09-04T16:04:29.950Z,29.90
2022-09-04T16:05:41.466Z,30.30
2022-09-04T16:06:57.823Z,30.70
2022-09-04T16:08:06.784Z,31.10
2022-09-04T16:09:41.348Z,31.70
2022-09-04T16:10:57.460Z,32.40
2022-09-04T16:12:10.105Z,33.00
2022-09-04T16:13:27.217Z,33.70
2022-09-04T16:14:39.934Z,34.40
2022-09-04T16:15:48.045Z,35.00
2022-09-04T16:16:54.666Z,35.70
2022-09-04T16:17:57.719Z,36.10
2022-09-04T16:19:15.648Z,36.50
2022-09-04T16:20:56.071Z,37.00
2022-09-04T16:22:35.111Z,37.60
2022-09-04T16:23:38.564Z,38.10
2022-09-04T16:24:43.632Z,38.60
2022-09-04T16:25:49.926Z,39.00
2022-09-04T16:26:54.509Z,39.40
2022-09-04T16:28:06.027Z,39.80
2022-09-04T16:29:26.252Z,40.20
2022-09-04T16:30:37.485Z,40.70
2022-09-04T16:31:39.956Z,41.10
2022-09-04T16:32:44.629Z,41.40
2022-09-04T16:33:53.322Z,41.70
2022-09-04T16:35:03.689Z,42.00
2022-09-04T16:36:15.533Z,42.30
2022-09-04T16:37:29.784Z,42.50
2022-09-04T16:38:47.450Z,42.70
2022-09-04T16:40:20.263Z,42.90
2022-09-04T16:41:50.800Z,43.10
2022-09-04T16:43:21.565Z,43.20
2022-09-04T16:44:50.820Z,43.40
2022-09-04T16:46:06.347Z,43.50
2022-09-04T16:47:10.832Z,43.60
2022-09-04T16:48:35.507Z,43.70
2022-09-04T16:50:02.524Z,43.80
2022-09-04T16:51:41.453Z,43.70
2022-09-04T16:53:13.005Z,43.70
2022-09-04T16:54:49.185Z,43.50
2022-09-04T16:56:13.868Z,43.50
2022-09-04T16:57:18.586Z,43.20
2022-09-04T16:58:35.020Z,42.70
2022-09-04T17:00:01.263Z,42.10
2022-09-04T17:01:28.954Z,41.10
2022-09-04T17:02:48.825Z,40.10
2022-09-04T17:04:11.264Z,39.30
2022-09-04T17:05:19.937Z,38.40
2022-09-04T17:06:43.260Z,37.60
2022-09-04T17:08:08.640Z,37.00
2022-09-04T17:09:21.526Z,36.40
2022-09-04T17:10:36.373Z,35.70
2022-09-04T17:11:55.525Z,35.10
2022-09-04T17:13:12.264Z,34.60
2022-09-04T17:14:18.455Z,34.10
2022-09-04T17:15:23.277Z,33.80
2022-09-04T17:16:33.546Z,33.50
2022-09-04T17:17:41.250Z,33.10
2022-09-04T17:18:55.408Z,32.90
2022-09-04T17:20:09.200Z,32.60
2022-09-04T17:23:34.048Z,32.30
2022-09-04T17:28:59.622Z,32.10